createdAt,value
2022-10-29T05:01:59.001Z,1.30
2022-10-29T05:07:02.763Z,1.35
2022-10-29T05:12:08.104Z,2.03
2022-10-29T05:17:13.086Z,1.50
2022-10-29T05:22:16.678Z,1.90
2022-10-29T05:27:20.235Z,1.23
2022-10-29T05:32:25.278Z,1.87
2022-10-29T05:37:29.052Z,2.17
2022-10-29T05:42:32.739Z,1.43
2022-10-29T05:47:37.735Z,1.60
2022-10-29T05:52:41.754Z,1.52
2022-10-29T05:57:45.444Z,1.27
2022-10-29T06:02:50.662Z,1.67
2022-10-29T06:07:58.712Z,2.22
2022-10-29T06:13:02.623Z,1.95
2022-10-29T06:18:08.211Z,1.27
2022-10-29T06:23:12.110Z,1.73
2022-10-29T06:28:16.441Z,1.42
2022-10-29T06:33:22.371Z,1.33
2022-10-29T06:38:26.076Z,1.92
2022-10-29T06:43:29.772Z,1.50
2022-10-29T06:48:34.801Z,1.77
2022-10-29T06:53:38.412Z,1.80
2022-10-29T06:58:42.107Z,1.80
2022-10-29T07:03:47.170Z,2.47
2022-10-29T07:08:50.853Z,1.73
2022-10-29T07:13:54.417Z,1.50
2022-10-29T07:18:59.423Z,1.67
2022-10-29T07:24:03.157Z,1.95
2022-10-29T07:29:06.871Z,2.13
2022-10-29T07:34:11.845Z,1.60
2022-10-29T07:39:15.508Z,1.70
2022-10-29T07:44:19.087Z,2.10
2022-10-29T07:49:24.262Z,2.47
2022-10-29T07:54:27.808Z,1.45
2022-10-29T07:59:31.433Z,2.17
2022-10-29T08:04:36.396Z,1.67
2022-10-29T08:09:40.786Z,1.08
2022-10-29T08:14:44.559Z,1.67
2022-10-29T08:19:49.476Z,1.77
2022-10-29T08:24:53.080Z,2.35
2022-10-29T08:29:56.718Z,1.83
2022-10-29T08:35:01.667Z,1.23
2022-10-29T08:40:05.472Z,1.30
2022-10-29T08:45:24.847Z,2.10
2022-10-29T08:50:34.377Z,2.17
2022-10-29T08:55:38.996Z,1.40
2022-10-29T09:00:44.730Z,1.58
2022-10-29T09:05:58.839Z,1.90
2022-10-29T09:11:19.367Z,2.17
2022-10-29T09:16:33.462Z,1.77
2022-10-29T09:21:45.147Z,1.75
2022-10-29T09:26:58.296Z,2.00
2022-10-29T09:32:04.577Z,1.50
2022-10-29T09:37:16.772Z,1.27
2022-10-29T09:42:27.684Z,1.52
2022-10-29T09:47:41.888Z,1.98
2022-10-29T09:52:49.565Z,1.45
2022-10-29T09:57:53.627Z,1.10
2022-10-29T10:03:02.916Z,1.12
2022-10-29T10:08:11.256Z,1.98
2022-10-29T10:13:17.282Z,1.85
2022-10-29T10:18:24.049Z,2.20
2022-10-29T10:23:32.123Z,1.10
2022-10-29T10:28:35.707Z,1.85
2022-10-29T10:33:50.105Z,1.67
2022-10-29T10:38:57.510Z,1.83
2022-10-29T10:44:04.813Z,1.15
2022-10-29T10:49:14.781Z,1.40
2022-10-29T10:54:33.640Z,1.20
2022-10-29T10:59:49.097Z,1.90
2022-10-29T11:05:02.136Z,1.77
2022-10-29T11:10:14.514Z,2.70
2022-10-29T11:15:22.893Z,1.73
2022-10-29T11:20:29.984Z,1.60
2022-10-29T11:25:42.721Z,1.12
2022-10-29T11:30:57.274Z,1.73
2022-10-29T11:41:18.623Z,2.45
2022-10-29T11:46:33.344Z,1.48
2022-10-29T11:51:44.391Z,1.80
2022-10-29T11:56:57.077Z,0.98
2022-10-29T12:02:14.488Z,1.85
2022-10-29T12:07:32.709Z,1.23
2022-10-29T12:12:46.299Z,2.22
2022-10-29T12:18:01.444Z,2.17
2022-10-29T12:23:18.826Z,2.08
2022-10-29T12:28:32.640Z,1.17
2022-10-29T12:33:45.229Z,1.73
2022-10-29T12:38:53.825Z,2.20
2022-10-29T12:44:05.047Z,1.77
2022-10-29T12:49:19.746Z,2.17
2022-10-29T12:54:34.922Z,1.90
2022-10-29T12:59:40.835Z,2.08
2022-10-29T13:05:14.060Z,1.17
2022-10-29T13:10:50.631Z,2.50
2022-10-29T13:16:03.709Z,1.60
2022-10-29T13:21:07.585Z,1.75
2022-10-29T13:26:11.300Z,1.98
2022-10-29T13:31:51.819Z,2.07
2022-10-29T13:37:35.534Z,0.93
2022-10-29T13:42:39.224Z,2.05
2022-10-29T13:47:42.961Z,2.90
2022-10-29T13:52:54.272Z,1.37
2022-10-29T13:58:03.897Z,1.08
2022-10-29T14:03:15.484Z,1.62
2022-10-29T14:08:25.752Z,1.50
2022-10-29T14:13:32.729Z,1.87
2022-10-29T14:18:39.392Z,1.40
2022-10-29T14:23:56.727Z,1.37
2022-10-29T14:29:15.266Z,1.62
2022-10-29T14:34:26.288Z,0.85
2022-10-29T14:39:55.718Z,0.52
2022-10-29T14:45:05.697Z,0.73
2022-10-29T14:50:17.892Z,0.47
2022-10-29T14:55:25.085Z,0.55
2022-10-29T15:00:30.351Z,0.62
2022-10-29T15:05:36.072Z,0.60
2022-10-29T15:10:48.169Z,0.40
2022-10-29T15:15:58.577Z,0.03
2022-10-29T15:21:03.374Z,0.20
2022-10-29T15:26:10.788Z,0.25
2022-10-29T15:31:21.448Z,0.30
2022-10-29T15:36:25.210Z,0.20
2022-10-29T15:41:38.541Z,0.03
2022-10-29T15:46:51.129Z,0.60
2022-10-29T15:51:55.833Z,0.25
2022-10-29T15:57:00.846Z,1.20
2022-10-29T16:02:11.999Z,0.30
2022-10-29T16:07:17.273Z,0.50
2022-10-29T16:12:22.886Z,0.68
2022-10-29T16:17:26.554Z,0.10
2022-10-29T16:22:31.412Z,0.70
2022-10-29T16:27:36.526Z,0.08
2022-10-29T16:32:42.024Z,0.30
2022-10-29T16:37:45.720Z,0.35
2022-10-29T16:42:51.232Z,0.70
2022-10-29T16:47:55.665Z,0.30
2022-10-29T16:52:59.990Z,1.02
2022-10-29T16:58:06.985Z,0.73
2022-10-29T17:03:12.886Z,0.45
2022-10-29T17:08:16.606Z,0.30
2022-10-29T17:13:21.559Z,0.97
2022-10-29T17:18:28.181Z,0.40
2022-10-29T17:23:32.381Z,0.60
2022-10-29T17:28:38.674Z,0.82
2022-10-29T17:33:42.281Z,1.20
2022-10-29T17:38:46.215Z,0.90
2022-10-29T17:43:51.132Z,1.05
2022-10-29T17:48:56.791Z,0.32
2022-10-29T17:54:00.754Z,0.10
2022-10-29T17:59:05.618Z,0.20
2022-10-29T18:04:09.133Z,0.65
2022-10-29T18:09:15.793Z,0.77
2022-10-29T18:14:23.683Z,0.43
2022-10-29T18:19:27.198Z,1.17
2022-10-29T18:24:30.701Z,0.60
2022-10-29T18:29:35.588Z,0.95
2022-10-29T18:34:39.126Z,0.70
2022-10-29T18:39:42.633Z,0.47
2022-10-29T18:44:47.575Z,1.62
2022-10-29T18:49:51.123Z,0.95
2022-10-29T18:54:54.759Z,1.80
2022-10-29T18:59:59.698Z,1.60
2022-10-29T19:05:03.267Z,0.73
2022-10-29T19:10:07.624Z,0.67
2022-10-29T19:15:12.756Z,1.12
2022-10-29T19:20:16.416Z,0.70
2022-10-29T19:25:19.930Z,0.93
2022-10-29T19:30:24.853Z,0.55
2022-10-29T19:35:28.376Z,0.52
2022-10-29T19:40:32.023Z,0.40
2022-10-29T19:45:39.400Z,0.50
2022-10-29T19:50:43.009Z,0.68
2022-10-29T19:55:50.350Z,0.63
2022-10-29T20:00:56.045Z,1.20
2022-10-29T20:05:59.661Z,1.08
2022-10-29T20:11:03.274Z,0.43
2022-10-29T20:16:14.419Z,0.40
2022-10-29T20:21:18.287Z,0.30
2022-10-29T20:26:22.512Z,0.80
2022-10-29T20:31:30.736Z,0.65
2022-10-29T20:36:35.312Z,0.80
2022-10-29T20:41:39.007Z,0.60
2022-10-29T20:46:44.019Z,0.80
2022-10-29T20:51:47.614Z,0.50
2022-10-29T20:56:51.174Z,0.95
2022-10-29T21:01:56.190Z,0.70
2022-10-29T21:06:59.758Z,0.70
2022-10-29T21:12:03.434Z,1.00
2022-10-29T21:17:08.276Z,0.57
2022-10-29T21:22:14.872Z,0.70
2022-10-29T21:27:18.436Z,0.98
2022-10-29T21:32:23.346Z,0.70
2022-10-29T21:37:27.510Z,0.70
2022-10-29T21:42:31.061Z,0.90
2022-10-29T21:47:35.990Z,0.80
2022-10-29T21:52:40.294Z,0.52
2022-10-29T21:57:44.632Z,0.70
2022-10-29T22:02:49.856Z,0.80
2022-10-29T22:07:56.104Z,0.57
2022-10-29T22:13:00.143Z,0.30
2022-10-29T22:18:05.409Z,0.50
2022-10-29T22:23:08.905Z,1.00
2022-10-29T22:28:12.443Z,0.20
